sensor_id;sensor_type;location;lat;lon;timestamp;pressure;altitude;pressure_sealevel;temperature;humidity
76050;BME280;64967;50.234;19.224;2023-09-19T00:00:56;73944.38;;;-143.90;86.45
76050;BME280;64967;50.234;19.224;2023-09-19T00:03:26;73946.44;;;-143.90;86.42
76050;BME280;64967;50.234;19.224;2023-09-19T00:05:55;73942.31;;;-143.90;86.66
76050;BME280;64967;50.234;19.224;2023-09-19T00:08:22;73948.50;;;-143.90;86.78
76050;BME280;64967;50.234;19.224;2023-09-19T00:10:49;73934.03;;;-143.90;85.98
76050;BME280;64967;50.234;19.224;2023-09-19T00:13:15;73940.25;;;-143.90;85.76
76050;BME280;64967;50.234;19.224;2023-09-19T00:15:45;73923.72;;;-143.90;84.93
76050;BME280;64967;50.234;19.224;2023-09-19T00:18:21;73936.09;;;-143.90;85.18
76050;BME280;64967;50.234;19.224;2023-09-19T00:20:51;73936.09;;;-143.90;84.77
76050;BME280;64967;50.234;19.224;2023-09-19T00:23:19;73921.63;;;-143.90;85.25
76050;BME280;64967;50.234;19.224;2023-09-19T00:25:47;73923.72;;;-143.90;85.04
76050;BME280;64967;50.234;19.224;2023-09-19T00:28:14;73923.72;;;-143.90;85.86
76050;BME280;64967;50.234;19.224;2023-09-19T00:30:45;73925.78;;;-143.90;85.31
76050;BME280;64967;50.234;19.224;2023-09-19T00:33:13;73911.31;;;-143.90;86.33
76050;BME280;64967;50.234;19.224;2023-09-19T00:35:50;73917.50;;;-143.90;85.60
76050;BME280;64967;50.234;19.224;2023-09-19T00:38:18;73890.63;;;-143.90;84.74
76050;BME280;64967;50.234;19.224;2023-09-19T00:40:48;73882.38;;;-143.90;83.73
76050;BME280;64967;50.234;19.224;2023-09-19T00:43:29;73872.03;;;-143.90;82.84
76050;BME280;64967;50.234;19.224;2023-09-19T00:45:56;73872.03;;;-143.90;83.30
76050;BME280;64967;50.234;19.224;2023-09-19T00:48:24;73861.69;;;-143.90;83.73
76050;BME280;64967;50.234;19.224;2023-09-19T00:50:54;73853.44;;;-143.90;83.29
76050;BME280;64967;50.234;19.224;2023-09-19T00:53:23;73849.31;;;-143.90;83.24
76050;BME280;64967;50.234;19.224;2023-09-19T00:55:55;73841.03;;;-143.90;83.07
76050;BME280;64967;50.234;19.224;2023-09-19T00:58:27;73838.97;;;-143.90;83.26
76050;BME280;64967;50.234;19.224;2023-09-19T01:01:04;73832.78;;;-143.90;83.21
76050;BME280;64967;50.234;19.224;2023-09-19T01:03:36;73826.56;;;-143.90;83.83
76050;BME280;64967;50.234;19.224;2023-09-19T01:06:03;73830.69;;;-143.90;85.37
76050;BME280;64967;50.234;19.224;2023-09-19T01:08:30;73836.91;;;-143.90;85.44
76050;BME280;64967;50.234;19.224;2023-09-19T01:13:58;73820.38;;;-143.90;84.77
76050;BME280;64967;50.234;19.224;2023-09-19T01:16:37;73816.25;;;-143.90;83.02
76050;BME280;64967;50.234;19.224;2023-09-19T01:22:26;73795.56;;;-143.90;85.41
76050;BME280;64967;50.234;19.224;2023-09-19T01:30:32;73793.50;;;-143.90;86.17
76050;BME280;64967;50.234;19.224;2023-09-19T01:33:00;73801.78;;;-143.90;85.43
76050;BME280;64967;50.234;19.224;2023-09-19T01:35:27;73787.31;;;-143.90;83.94
76050;BME280;64967;50.234;19.224;2023-09-19T01:38:03;73783.16;;;-143.90;82.60
76050;BME280;64967;50.234;19.224;2023-09-19T01:40:31;73783.16;;;-143.90;81.01
76050;BME280;64967;50.234;19.224;2023-09-19T01:43:49;73762.50;;;-143.90;81.90
76050;BME280;64967;50.234;19.224;2023-09-19T01:46:24;73770.78;;;-143.90;81.44
76050;BME280;64967;50.234;19.224;2023-09-19T01:48:54;73760.44;;;-143.90;80.96
76050;BME280;64967;50.234;19.224;2023-09-19T01:51:46;73756.31;;;-143.90;81.75
76050;BME280;64967;50.234;19.224;2023-09-19T01:54:27;73745.97;;;-143.90;81.28
76050;BME280;64967;50.234;19.224;2023-09-19T01:56:59;73745.97;;;-143.90;80.77
76050;BME280;64967;50.234;19.224;2023-09-19T01:59:37;73739.78;;;-143.90;79.99
76050;BME280;64967;50.234;19.224;2023-09-19T02:02:08;73737.69;;;-143.90;79.23
76050;BME280;64967;50.234;19.224;2023-09-19T02:04:37;73739.78;;;-143.90;79.51
76050;BME280;64967;50.234;19.224;2023-09-19T02:07:04;73741.84;;;-143.90;79.63
76050;BME280;64967;50.234;19.224;2023-09-19T02:09:34;73733.56;;;-143.90;80.27
76050;BME280;64967;50.234;19.224;2023-09-19T02:12:02;73719.09;;;-143.90;80.13
76050;BME280;64967;50.234;19.224;2023-09-19T02:14:31;73727.38;;;-143.90;79.14
76050;BME280;64967;50.234;19.224;2023-09-19T02:16:58;73721.16;;;-143.90;79.75
76050;BME280;64967;50.234;19.224;2023-09-19T02:19:27;73721.16;;;-143.90;79.08
76050;BME280;64967;50.234;19.224;2023-09-19T02:21:54;73717.03;;;-143.90;79.63
76050;BME280;64967;50.234;19.224;2023-09-19T02:24:21;73721.16;;;-143.90;79.32
76050;BME280;64967;50.234;19.224;2023-09-19T02:26:48;73706.69;;;-143.90;79.30
76050;BME280;64967;50.234;19.224;2023-09-19T02:29:15;73698.44;;;-143.90;80.40
76050;BME280;64967;50.234;19.224;2023-09-19T02:31:42;73698.44;;;-143.90;79.84
76050;BME280;64967;50.234;19.224;2023-09-19T02:34:09;73688.09;;;-143.90;79.58
76050;BME280;64967;50.234;19.224;2023-09-19T02:36:37;73688.09;;;-143.90;79.75
76050;BME280;64967;50.234;19.224;2023-09-19T02:39:07;73686.03;;;-143.90;79.99
76050;BME280;64967;50.234;19.224;2023-09-19T02:41:34;73683.97;;;-143.90;80.01
76050;BME280;64967;50.234;19.224;2023-09-19T02:44:01;73683.97;;;-143.90;79.99
76050;BME280;64967;50.234;19.224;2023-09-19T02:46:29;73671.56;;;-143.90;80.46
76050;BME280;64967;50.234;19.224;2023-09-19T02:48:56;73659.16;;;-143.90;80.09
76050;BME280;64967;50.234;19.224;2023-09-19T02:51:23;73667.44;;;-143.90;79.61
76050;BME280;64967;50.234;19.224;2023-09-19T02:53:50;73657.09;;;-143.90;80.16
76050;BME280;64967;50.234;19.224;2023-09-19T02:56:21;73652.97;;;-143.90;80.08
76050;BME280;64967;50.234;19.224;2023-09-19T02:58:49;73646.78;;;-143.90;80.22
76050;BME280;64967;50.234;19.224;2023-09-19T03:01:16;73634.38;;;-143.90;80.37
76050;BME280;64967;50.234;19.224;2023-09-19T03:03:47;73640.56;;;-143.90;80.60
76050;BME280;64967;50.234;19.224;2023-09-19T03:06:14;73642.63;;;-143.90;81.25
76050;BME280;64967;50.234;19.224;2023-09-19T03:08:41;73650.91;;;-143.90;81.37
76050;BME280;64967;50.234;19.224;2023-09-19T03:11:14;73642.63;;;-143.90;81.40
76050;BME280;64967;50.234;19.224;2023-09-19T03:13:42;73646.78;;;-143.90;81.20
76050;BME280;64967;50.234;19.224;2023-09-19T03:16:14;73648.84;;;-143.90;81.84
76050;BME280;64967;50.234;19.224;2023-09-19T03:18:42;73648.84;;;-143.90;82.41
76050;BME280;64967;50.234;19.224;2023-09-19T03:21:09;73642.63;;;-143.90;83.48
76050;BME280;64967;50.234;19.224;2023-09-19T03:23:38;73655.03;;;-143.90;83.64
76050;BME280;64967;50.234;19.224;2023-09-19T03:26:06;73663.31;;;-143.90;84.59
76050;BME280;64967;50.234;19.224;2023-09-19T03:28:33;73673.63;;;-143.90;85.91
76050;BME280;64967;50.234;19.224;2023-09-19T03:31:05;73690.16;;;-143.90;87.87
76050;BME280;64967;50.234;19.224;2023-09-19T03:33:33;73686.03;;;-143.90;88.54
76050;BME280;64967;50.234;19.224;2023-09-19T03:36:02;73686.03;;;-143.90;89.00
76050;BME280;64967;50.234;19.224;2023-09-19T03:38:35;73708.78;;;-143.90;90.24
76050;BME280;64967;50.234;19.224;2023-09-19T03:41:02;73719.09;;;-143.90;90.90
76050;BME280;64967;50.234;19.224;2023-09-19T03:43:29;73710.84;;;-143.90;91.49
76050;BME280;64967;50.234;19.224;2023-09-19T03:46:01;73725.31;;;-143.90;92.29
76050;BME280;64967;50.234;19.224;2023-09-19T03:48:31;73721.16;;;-143.90;92.81
76050;BME280;64967;50.234;19.224;2023-09-19T03:50:57;73727.38;;;-143.90;93.82
76050;BME280;64967;50.234;19.224;2023-09-19T03:53:25;73725.31;;;-143.90;94.56
76050;BME280;64967;50.234;19.224;2023-09-19T03:55:52;73731.50;;;-143.90;94.54
76050;BME280;64967;50.234;19.224;2023-09-19T03:58:20;73729.44;;;-143.90;95.04
76050;BME280;64967;50.234;19.224;2023-09-19T04:00:47;73733.56;;;-143.90;95.04
76050;BME280;64967;50.234;19.224;2023-09-19T04:03:16;73729.44;;;-143.90;95.74
76050;BME280;64967;50.234;19.224;2023-09-19T04:05:47;73725.31;;;-143.90;95.64
76050;BME280;64967;50.234;19.224;2023-09-19T04:08:14;73729.44;;;-143.90;95.47
76050;BME280;64967;50.234;19.224;2023-09-19T04:10:42;73733.56;;;-143.90;95.83
76050;BME280;64967;50.234;19.224;2023-09-19T04:13:10;73737.69;;;-143.90;96.13
76050;BME280;64967;50.234;19.224;2023-09-19T04:15:37;73725.31;;;-143.90;96.62
76050;BME280;64967;50.234;19.224;2023-09-19T04:18:04;73735.63;;;-143.90;97.79
76050;BME280;64967;50.234;19.224;2023-09-19T04:20:31;73743.91;;;-143.90;99.38
76050;BME280;64967;50.234;19.224;2023-09-19T04:22:58;73758.38;;;-143.90;100.00
76050;BME280;64967;50.234;19.224;2023-09-19T04:25:26;73758.38;;;-143.90;100.00
76050;BME280;64967;50.234;19.224;2023-09-19T04:27:54;73754.25;;;-143.90;100.00
76050;BME280;64967;50.234;19.224;2023-09-19T04:30:21;73741.84;;;-143.90;100.00
76050;BME280;64967;50.234;19.224;2023-09-19T04:32:48;73733.56;;;-143.90;99.16
76050;BME280;64967;50.234;19.224;2023-09-19T04:35:17;73739.78;;;-143.90;99.07
76050;BME280;64967;50.234;19.224;2023-09-19T04:37:44;73737.69;;;-143.90;98.83
76050;BME280;64967;50.234;19.224;2023-09-19T04:40:11;73743.91;;;-143.90;99.04
76050;BME280;64967;50.234;19.224;2023-09-19T04:42:40;73739.78;;;-143.90;99.37
76050;BME280;64967;50.234;19.224;2023-09-19T04:45:08;73739.78;;;-143.90;99.63
76050;BME280;64967;50.234;19.224;2023-09-19T04:47:37;73737.69;;;-143.90;99.07
76050;BME280;64967;50.234;19.224;2023-09-19T04:50:09;73741.84;;;-143.90;99.31
76050;BME280;64967;50.234;19.224;2023-09-19T04:52:44;73731.50;;;-143.90;99.65
76050;BME280;64967;50.234;19.224;2023-09-19T04:55:15;73737.69;;;-143.90;99.25
76050;BME280;64967;50.234;19.224;2023-09-19T04:57:50;73733.56;;;-143.90;99.42
76050;BME280;64967;50.234;19.224;2023-09-19T05:00:19;73733.56;;;-143.90;99.86
76050;BME280;64967;50.234;19.224;2023-09-19T05:02:50;73733.56;;;-143.90;99.59
76050;BME280;64967;50.234;19.224;2023-09-19T05:05:18;73729.44;;;-143.90;100.00
76050;BME280;64967;50.234;19.224;2023-09-19T05:07:49;73731.50;;;-143.90;100.00
76050;BME280;64967;50.234;19.224;2023-09-19T05:10:17;73750.09;;;-143.90;100.00
76050;BME280;64967;50.234;19.224;2023-09-19T05:12:47;73733.56;;;-143.90;100.00
76050;BME280;64967;50.234;19.224;2023-09-19T05:15:15;73735.63;;;-143.90;99.88
76050;BME280;64967;50.234;19.224;2023-09-19T05:17:52;73737.69;;;-143.90;100.00
76050;BME280;64967;50.234;19.224;2023-09-19T05:20:24;73745.97;;;-143.90;100.00
76050;BME280;64967;50.234;19.224;2023-09-19T05:23:01;73748.03;;;-143.90;100.00
76050;BME280;64967;50.234;19.224;2023-09-19T05:25:30;73750.09;;;-143.90;100.00
76050;BME280;64967;50.234;19.224;2023-09-19T05:27:58;73745.97;;;-143.90;100.00
76050;BME280;64967;50.234;19.224;2023-09-19T05:30:26;73748.03;;;-143.90;100.00
76050;BME280;64967;50.234;19.224;2023-09-19T05:32:53;73750.09;;;-143.90;100.00
76050;BME280;64967;50.234;19.224;2023-09-19T05:35:21;73752.16;;;-143.90;100.00
76050;BME280;64967;50.234;19.224;2023-09-19T05:37:50;73758.38;;;-143.90;100.00
76050;BME280;64967;50.234;19.224;2023-09-19T05:40:18;73762.50;;;-143.90;100.00
76050;BME280;64967;50.234;19.224;2023-09-19T05:42:46;73756.31;;;-143.90;100.00
76050;BME280;64967;50.234;19.224;2023-09-19T05:45:13;73766.63;;;-143.90;100.00
76050;BME280;64967;50.234;19.224;2023-09-19T05:47:40;73758.38;;;-143.90;100.00
76050;BME280;64967;50.234;19.224;2023-09-19T05:50:12;73748.03;;;-143.90;100.00
76050;BME280;64967;50.234;19.224;2023-09-19T05:52:39;73754.25;;;-143.90;100.00
76050;BME280;64967;50.234;19.224;2023-09-19T05:55:07;73758.38;;;-143.90;100.00
76050;BME280;64967;50.234;19.224;2023-09-19T05:57:34;73758.38;;;-143.90;100.00
76050;BME280;64967;50.234;19.224;2023-09-19T06:00:01;73768.69;;;-143.90;100.00
76050;BME280;64967;50.234;19.224;2023-09-19T06:02:30;73764.56;;;-143.90;100.00
76050;BME280;64967;50.234;19.224;2023-09-19T06:04:57;73760.44;;;-143.90;100.00
76050;BME280;64967;50.234;19.224;2023-09-19T06:07:24;73768.69;;;-143.90;100.00
76050;BME280;64967;50.234;19.224;2023-09-19T06:09:52;73762.50;;;-143.90;100.00
76050;BME280;64967;50.234;19.224;2023-09-19T06:12:20;73762.50;;;-143.90;100.00
76050;BME280;64967;50.234;19.224;2023-09-19T06:14:46;73766.63;;;-143.90;100.00
76050;BME280;64967;50.234;19.224;2023-09-19T06:17:14;73768.69;;;-143.90;100.00
76050;BME280;64967;50.234;19.224;2023-09-19T06:19:41;73768.69;;;-143.90;100.00
76050;BME280;64967;50.234;19.224;2023-09-19T06:22:15;73762.50;;;-143.90;100.00
76050;BME280;64967;50.234;19.224;2023-09-19T06:24:45;73770.78;;;-143.90;100.00
76050;BME280;64967;50.234;19.224;2023-09-19T06:27:13;73768.69;;;-143.90;100.00
76050;BME280;64967;50.234;19.224;2023-09-19T06:29:40;73774.91;;;-143.90;100.00
76050;BME280;64967;50.234;19.224;2023-09-19T06:32:10;73793.50;;;-143.90;100.00
76050;BME280;64967;50.234;19.224;2023-09-19T06:34:37;73793.50;;;-143.90;100.00
76050;BME280;64967;50.234;19.224;2023-09-19T06:37:05;73795.56;;;-143.90;100.00
76050;BME280;64967;50.234;19.224;2023-09-19T06:39:32;73805.91;;;-143.90;99.93
76050;BME280;64967;50.234;19.224;2023-09-19T06:41:59;73812.09;;;-143.90;99.76
76050;BME280;64967;50.234;19.224;2023-09-19T06:44:28;73824.50;;;-143.90;99.41
76050;BME280;64967;50.234;19.224;2023-09-19T06:46:56;73830.69;;;-143.90;99.11
76050;BME280;64967;50.234;19.224;2023-09-19T06:49:22;73836.91;;;-143.90;99.20
76050;BME280;64967;50.234;19.224;2023-09-19T06:51:49;73851.38;;;-143.90;99.56
76050;BME280;64967;50.234;19.224;2023-09-19T06:54:16;73853.44;;;-143.90;99.46
76050;BME280;64967;50.234;19.224;2023-09-19T06:56:44;73849.31;;;-143.90;99.83
76050;BME280;64967;50.234;19.224;2023-09-19T06:59:11;73855.50;;;-143.90;99.32
76050;BME280;64967;50.234;19.224;2023-09-19T07:01:41;73865.84;;;-143.90;99.19
76050;BME280;64967;50.234;19.224;2023-09-19T07:04:08;73855.50;;;-143.90;99.00
76050;BME280;64967;50.234;19.224;2023-09-19T07:06:35;73857.56;;;-143.90;99.64
76050;BME280;64967;50.234;19.224;2023-09-19T07:09:02;73865.84;;;-143.90;99.41
76050;BME280;64967;50.234;19.224;2023-09-19T07:11:29;73869.97;;;-143.90;99.40
76050;BME280;64967;50.234;19.224;2023-09-19T07:13:57;73865.84;;;-143.90;99.45
76050;BME280;64967;50.234;19.224;2023-09-19T07:16:25;73865.84;;;-143.90;99.37
76050;BME280;64967;50.234;19.224;2023-09-19T07:18:56;73874.09;;;-143.90;99.44
76050;BME280;64967;50.234;19.224;2023-09-19T07:21:24;73886.50;;;-143.90;99.57
76050;BME280;64967;50.234;19.224;2023-09-19T07:23:51;73890.63;;;-143.90;99.66
76050;BME280;64967;50.234;19.224;2023-09-19T07:26:18;73903.03;;;-143.90;99.80
76050;BME280;64967;50.234;19.224;2023-09-19T07:28:45;73909.25;;;-143.90;99.87
76050;BME280;64967;50.234;19.224;2023-09-19T07:31:12;73903.03;;;-143.90;99.93
76050;BME280;64967;50.234;19.224;2023-09-19T07:33:40;73905.09;;;-143.90;100.00
76050;BME280;64967;50.234;19.224;2023-09-19T07:36:10;73913.38;;;-143.90;99.98
76050;BME280;64967;50.234;19.224;2023-09-19T07:38:37;73911.31;;;-143.90;100.00
76050;BME280;64967;50.234;19.224;2023-09-19T07:41:04;73905.09;;;-143.90;100.00
76050;BME280;64967;50.234;19.224;2023-09-19T07:43:32;73923.72;;;-143.90;100.00
76050;BME280;64967;50.234;19.224;2023-09-19T07:46:07;73915.44;;;-143.90;100.00
76050;BME280;64967;50.234;19.224;2023-09-19T07:48:35;73917.50;;;-143.90;100.00
76050;BME280;64967;50.234;19.224;2023-09-19T07:51:05;73915.44;;;-143.90;100.00
76050;BME280;64967;50.234;19.224;2023-09-19T07:53:33;73919.56;;;-143.90;99.79
76050;BME280;64967;50.234;19.224;2023-09-19T07:56:09;73911.31;;;-143.90;100.00
76050;BME280;64967;50.234;19.224;2023-09-19T07:58:39;73919.56;;;-143.90;99.95
76050;BME280;64967;50.234;19.224;2023-09-19T08:01:09;73915.44;;;-143.90;100.00
76050;BME280;64967;50.234;19.224;2023-09-19T08:03:37;73917.50;;;-143.90;100.00
76050;BME280;64967;50.234;19.224;2023-09-19T08:06:09;73917.50;;;-143.90;100.00
76050;BME280;64967;50.234;19.224;2023-09-19T08:08:36;73923.72;;;-143.90;100.00
76050;BME280;64967;50.234;19.224;2023-09-19T08:11:04;73923.72;;;-143.90;100.00
76050;BME280;64967;50.234;19.224;2023-09-19T08:13:39;73927.84;;;-143.90;100.00
76050;BME280;64967;50.234;19.224;2023-09-19T08:16:10;73936.09;;;-143.90;100.00
76050;BME280;64967;50.234;19.224;2023-09-19T08:18:37;73936.09;;;-143.90;100.00
76050;BME280;64967;50.234;19.224;2023-09-19T08:21:07;73942.31;;;-143.90;100.00
76050;BME280;64967;50.234;19.224;2023-09-19T08:23:37;73940.25;;;-143.90;100.00
76050;BME280;64967;50.234;19.224;2023-09-19T08:26:08;73944.38;;;-143.90;100.00
76050;BME280;64967;50.234;19.224;2023-09-19T08:28:35;73944.38;;;-143.90;100.00
76050;BME280;64967;50.234;19.224;2023-09-19T08:31:03;73952.63;;;-143.90;100.00
76050;BME280;64967;50.234;19.224;2023-09-19T08:33:34;73973.31;;;-143.90;100.00
76050;BME280;64967;50.234;19.224;2023-09-19T08:36:02;73993.97;;;-143.90;100.00
76050;BME280;64967;50.234;19.224;2023-09-19T08:38:31;73969.19;;;-143.90;100.00
76050;BME280;64967;50.234;19.224;2023-09-19T08:41:00;73971.25;;;-143.90;100.00
76050;BME280;64967;50.234;19.224;2023-09-19T08:43:27;73977.44;;;-143.90;100.00
76050;BME280;64967;50.234;19.224;2023-09-19T08:46:18;73965.03;;;-143.90;100.00
76050;BME280;64967;50.234;19.224;2023-09-19T08:49:05;73965.03;;;-143.90;100.00
76050;BME280;64967;50.234;19.224;2023-09-19T08:51:43;73969.19;;;-143.90;100.00
76050;BME280;64967;50.234;19.224;2023-09-19T08:54:25;73965.03;;;-143.90;100.00
76050;BME280;64967;50.234;19.224;2023-09-19T08:56:59;73960.91;;;-143.90;100.00
76050;BME280;64967;50.234;19.224;2023-09-19T08:59:29;73969.19;;;-143.90;100.00
76050;BME280;64967;50.234;19.224;2023-09-19T09:01:57;73971.25;;;-143.90;100.00
76050;BME280;64967;50.234;19.224;2023-09-19T09:04:24;73969.19;;;-143.90;100.00
76050;BME280;64967;50.234;19.224;2023-09-19T09:06:53;73975.38;;;-143.90;100.00
76050;BME280;64967;50.234;19.224;2023-09-19T09:09:21;73981.56;;;-143.90;100.00
76050;BME280;64967;50.234;19.224;2023-09-19T09:11:49;73973.31;;;-143.90;100.00
76050;BME280;64967;50.234;19.224;2023-09-19T09:14:20;73983.66;;;-143.90;100.00
76050;BME280;64967;50.234;19.224;2023-09-19T09:16:48;73996.03;;;-143.90;100.00
76050;BME280;64967;50.234;19.224;2023-09-19T09:19:15;74012.56;;;-143.90;100.00
76050;BME280;64967;50.234;19.224;2023-09-19T09:21:51;74002.25;;;-143.90;100.00
76050;BME280;64967;50.234;19.224;2023-09-19T09:24:29;74018.78;;;-143.90;100.00
76050;BME280;64967;50.234;19.224;2023-09-19T09:26:57;74029.13;;;-143.90;100.00
76050;BME280;64967;50.234;19.224;2023-09-19T09:32:20;74016.72;;;-143.90;100.00
76050;BME280;64967;50.234;19.224;2023-09-19T09:34:53;74014.66;;;-143.90;100.00
76050;BME280;64967;50.234;19.224;2023-09-19T09:37:24;74014.66;;;-143.90;100.00
76050;BME280;64967;50.234;19.224;2023-09-19T09:40:00;74004.31;;;-143.90;100.00
76050;BME280;64967;50.234;19.224;2023-09-19T09:42:46;74004.31;;;-143.90;100.00
76050;BME280;64967;50.234;19.224;2023-09-19T09:45:22;73998.13;;;-143.90;100.00
76050;BME280;64967;50.234;19.224;2023-09-19T09:48:04;74010.50;;;-143.90;100.00
76050;BME280;64967;50.234;19.224;2023-09-19T09:50:48;73998.13;;;-143.90;100.00
76050;BME280;64967;50.234;19.224;2023-09-19T09:53:28;74002.25;;;-143.90;100.00
76050;BME280;64967;50.234;19.224;2023-09-19T09:56:05;73989.84;;;-143.90;100.00
76050;BME280;64967;50.234;19.224;2023-09-19T09:58:34;74004.31;;;-143.90;100.00
76050;BME280;64967;50.234;19.224;2023-09-19T10:01:04;73987.78;;;-143.90;100.00
76050;BME280;64967;50.234;19.224;2023-09-19T10:03:42;73983.66;;;-143.90;100.00
76050;BME280;64967;50.234;19.224;2023-09-19T10:06:17;73989.84;;;-143.90;100.00
76050;BME280;64967;50.234;19.224;2023-09-19T10:09:06;73987.78;;;-143.90;100.00
76050;BME280;64967;50.234;19.224;2023-09-19T10:12:11;73989.84;;;-143.90;100.00
76050;BME280;64967;50.234;19.224;2023-09-19T10:14:40;73993.97;;;-143.90;100.00
76050;BME280;64967;50.234;19.224;2023-09-19T10:17:12;73989.84;;;-143.90;100.00
76050;BME280;64967;50.234;19.224;2023-09-19T10:19:57;73991.91;;;-143.90;100.00
76050;BME280;64967;50.234;19.224;2023-09-19T10:22:34;73979.50;;;-143.90;100.00
76050;BME280;64967;50.234;19.224;2023-09-19T10:25:04;73981.56;;;-143.90;100.00
76050;BME280;64967;50.234;19.224;2023-09-19T10:27:35;73975.38;;;-143.90;100.00
76050;BME280;64967;50.234;19.224;2023-09-19T10:30:07;73975.38;;;-143.90;100.00
76050;BME280;64967;50.234;19.224;2023-09-19T10:32:40;73973.31;;;-143.90;100.00
76050;BME280;64967;50.234;19.224;2023-09-19T10:35:08;73975.38;;;-143.90;100.00
76050;BME280;64967;50.234;19.224;2023-09-19T10:37:40;73981.56;;;-143.90;100.00
76050;BME280;64967;50.234;19.224;2023-09-19T10:40:12;73985.72;;;-143.90;100.00
76050;BME280;64967;50.234;19.224;2023-09-19T10:42:43;73985.72;;;-143.90;100.00
76050;BME280;64967;50.234;19.224;2023-09-19T10:45:15;73987.78;;;-143.90;100.00
76050;BME280;64967;50.234;19.224;2023-09-19T10:47:44;73998.13;;;-143.90;100.00
76050;BME280;64967;50.234;19.224;2023-09-19T10:50:19;73996.03;;;-143.90;100.00
76050;BME280;64967;50.234;19.224;2023-09-19T10:52:48;74000.19;;;-143.90;100.00
76050;BME280;64967;50.234;19.224;2023-09-19T10:55:19;73998.13;;;-143.90;100.00
76050;BME280;64967;50.234;19.224;2023-09-19T10:57:47;74004.31;;;-143.90;100.00
76050;BME280;64967;50.234;19.224;2023-09-19T11:00:14;74000.19;;;-143.90;100.00
76050;BME280;64967;50.234;19.224;2023-09-19T11:05:36;73998.13;;;-143.90;100.00
76050;BME280;64967;50.234;19.224;2023-09-19T11:08:08;73998.13;;;-143.90;100.00
76050;BME280;64967;50.234;19.224;2023-09-19T11:10:51;74002.25;;;-143.90;100.00
76050;BME280;64967;50.234;19.224;2023-09-19T11:13:28;74000.19;;;-143.90;100.00
76050;BME280;64967;50.234;19.224;2023-09-19T11:26:51;74010.50;;;-143.90;100.00
76050;BME280;64967;50.234;19.224;2023-09-19T11:29:28;74018.78;;;-143.90;100.00
76050;BME280;64967;50.234;19.224;2023-09-19T11:31:57;74022.91;;;-143.90;100.00
76050;BME280;64967;50.234;19.224;2023-09-19T11:40:09;74043.59;;;-143.90;99.57
76050;BME280;64967;50.234;19.224;2023-09-19T11:42:44;74045.66;;;-143.90;100.00
76050;BME280;64967;50.234;19.224;2023-09-19T11:48:15;74039.44;;;-143.90;97.93
76050;BME280;64967;50.234;19.224;2023-09-19T11:50:43;74037.38;;;-143.90;97.96
76050;BME280;64967;50.234;19.224;2023-09-19T11:53:13;74043.59;;;-143.90;98.16
76050;BME280;64967;50.234;19.224;2023-09-19T11:55:44;74058.06;;;-143.90;97.02
76050;BME280;64967;50.234;19.224;2023-09-19T11:58:12;74055.97;;;-143.90;97.01
76050;BME280;64967;50.234;19.224;2023-09-19T12:00:44;74035.31;;;-143.90;98.10
76050;BME280;64967;50.234;19.224;2023-09-19T12:03:12;74045.66;;;-143.90;98.25
76050;BME280;64967;50.234;19.224;2023-09-19T12:05:41;74043.59;;;-143.90;98.38
76050;BME280;64967;50.234;19.224;2023-09-19T12:08:08;74035.31;;;-143.90;98.64
76050;BME280;64967;50.234;19.224;2023-09-19T12:10:48;74035.31;;;-143.90;98.36
76050;BME280;64967;50.234;19.224;2023-09-19T12:13:19;74029.13;;;-143.90;98.97
76050;BME280;64967;50.234;19.224;2023-09-19T12:15:47;74027.03;;;-143.90;99.58
76050;BME280;64967;50.234;19.224;2023-09-19T12:18:30;74027.03;;;-143.90;99.14
76050;BME280;64967;50.234;19.224;2023-09-19T12:20:57;74022.91;;;-143.90;98.79
76050;BME280;64967;50.234;19.224;2023-09-19T12:23:25;74027.03;;;-143.90;98.74
76050;BME280;64967;50.234;19.224;2023-09-19T12:25:54;74018.78;;;-143.90;98.92
76050;BME280;64967;50.234;19.224;2023-09-19T12:28:26;74027.03;;;-143.90;98.38
76050;BME280;64967;50.234;19.224;2023-09-19T12:30:54;74027.03;;;-143.90;98.72
76050;BME280;64967;50.234;19.224;2023-09-19T12:33:22;74027.03;;;-143.90;98.72
76050;BME280;64967;50.234;19.224;2023-09-19T12:35:52;74012.56;;;-143.90;98.70
76050;BME280;64967;50.234;19.224;2023-09-19T12:38:27;74012.56;;;-143.90;98.51
76050;BME280;64967;50.234;19.224;2023-09-19T12:41:02;74012.56;;;-143.90;98.56
76050;BME280;64967;50.234;19.224;2023-09-19T12:43:29;74014.66;;;-143.90;98.58
76050;BME280;64967;50.234;19.224;2023-09-19T12:45:59;74010.50;;;-143.90;98.75
76050;BME280;64967;50.234;19.224;2023-09-19T12:48:27;74006.38;;;-143.90;98.28
76050;BME280;64967;50.234;19.224;2023-09-19T12:51:03;74002.25;;;-143.90;98.01
76050;BME280;64967;50.234;19.224;2023-09-19T12:53:35;74006.38;;;-143.90;98.32
76050;BME280;64967;50.234;19.224;2023-09-19T12:56:09;74006.38;;;-143.90;98.04
76050;BME280;64967;50.234;19.224;2023-09-19T12:58:52;73998.13;;;-143.90;98.48
76050;BME280;64967;50.234;19.224;2023-09-19T13:01:23;73998.13;;;-143.90;98.72
76050;BME280;64967;50.234;19.224;2023-09-19T13:04:14;74002.25;;;-143.90;98.43
76050;BME280;64967;50.234;19.224;2023-09-19T13:06:52;73989.84;;;-143.90;97.92
76050;BME280;64967;50.234;19.224;2023-09-19T13:09:21;73977.44;;;-143.90;97.60
76050;BME280;64967;50.234;19.224;2023-09-19T13:11:48;73981.56;;;-143.90;97.02
76050;BME280;64967;50.234;19.224;2023-09-19T13:14:25;73960.91;;;-143.90;97.56
76050;BME280;64967;50.234;19.224;2023-09-19T13:17:01;73952.63;;;-143.90;97.81
76050;BME280;64967;50.234;19.224;2023-09-19T13:19:45;73948.50;;;-143.90;96.71